sensor_id;sensor_type;location;lat;lon;timestamp;P1;durP1;ratioP1;P2;durP2;ratioP2
14892;SDS011;7538;53.626;9.906;2023-04-06T00:00:10;6.53;;;5.03;;
14892;SDS011;7538;53.626;9.906;2023-04-06T00:02:38;7.57;;;5.20;;
14892;SDS011;7538;53.626;9.906;2023-04-06T00:05:05;6.17;;;5.17;;
14892;SDS011;7538;53.626;9.906;2023-04-06T00:07:33;6.00;;;4.93;;
14892;SDS011;7538;53.626;9.906;2023-04-06T00:10:00;5.40;;;4.03;;
14892;SDS011;7538;53.626;9.906;2023-04-06T00:12:29;7.13;;;5.23;;
14892;SDS011;7538;53.626;9.906;2023-04-06T00:14:56;7.03;;;5.00;;
14892;SDS011;7538;53.626;9.906;2023-04-06T00:17:23;5.93;;;4.57;;
14892;SDS011;7538;53.626;9.906;2023-04-06T00:19:49;5.83;;;4.30;;
14892;SDS011;7538;53.626;9.906;2023-04-06T00:22:16;6.33;;;4.30;;
14892;SDS011;7538;53.626;9.906;2023-04-06T00:24:43;5.40;;;4.77;;
14892;SDS011;7538;53.626;9.906;2023-04-06T00:27:10;6.57;;;5.33;;
14892;SDS011;7538;53.626;9.906;2023-04-06T00:29:39;6.07;;;4.40;;
14892;SDS011;7538;53.626;9.906;2023-04-06T00:32:06;7.60;;;4.63;;
14892;SDS011;7538;53.626;9.906;2023-04-06T00:34:32;5.53;;;4.63;;
14892;SDS011;7538;53.626;9.906;2023-04-06T00:36:59;7.10;;;5.23;;
14892;SDS011;7538;53.626;9.906;2023-04-06T00:39:26;5.33;;;4.60;;
14892;SDS011;7538;53.626;9.906;2023-04-06T00:41:53;7.63;;;5.03;;
14892;SDS011;7538;53.626;9.906;2023-04-06T00:44:21;6.63;;;4.57;;
14892;SDS011;7538;53.626;9.906;2023-04-06T00:46:49;8.97;;;5.07;;
14892;SDS011;7538;53.626;9.906;2023-04-06T00:49:16;5.63;;;4.57;;
14892;SDS011;7538;53.626;9.906;2023-04-06T00:51:43;7.70;;;4.87;;
14892;SDS011;7538;53.626;9.906;2023-04-06T00:54:10;6.60;;;5.27;;
14892;SDS011;7538;53.626;9.906;2023-04-06T00:56:37;8.93;;;4.73;;
14892;SDS011;7538;53.626;9.906;2023-04-06T00:59:04;6.87;;;5.20;;
14892;SDS011;7538;53.626;9.906;2023-04-06T01:01:31;5.63;;;5.00;;
14892;SDS011;7538;53.626;9.906;2023-04-06T01:03:59;7.40;;;5.13;;
14892;SDS011;7538;53.626;9.906;2023-04-06T01:06:28;7.87;;;5.07;;
14892;SDS011;7538;53.626;9.906;2023-04-06T01:08:54;7.43;;;4.63;;
14892;SDS011;7538;53.626;9.906;2023-04-06T01:11:22;5.83;;;4.50;;
14892;SDS011;7538;53.626;9.906;2023-04-06T01:13:48;7.00;;;4.77;;
14892;SDS011;7538;53.626;9.906;2023-04-06T01:16:15;8.43;;;5.27;;
14892;SDS011;7538;53.626;9.906;2023-04-06T01:18:42;5.70;;;4.80;;
14892;SDS011;7538;53.626;9.906;2023-04-06T01:21:11;7.40;;;4.83;;
14892;SDS011;7538;53.626;9.906;2023-04-06T01:23:43;11.93;;;4.77;;
14892;SDS011;7538;53.626;9.906;2023-04-06T01:26:11;5.67;;;4.43;;
14892;SDS011;7538;53.626;9.906;2023-04-06T01:28:38;7.17;;;4.73;;
14892;SDS011;7538;53.626;9.906;2023-04-06T01:31:05;6.33;;;4.27;;
14892;SDS011;7538;53.626;9.906;2023-04-06T01:33:33;6.33;;;4.10;;
14892;SDS011;7538;53.626;9.906;2023-04-06T01:36:00;7.10;;;4.90;;
14892;SDS011;7538;53.626;9.906;2023-04-06T01:38:27;5.80;;;4.67;;
14892;SDS011;7538;53.626;9.906;2023-04-06T01:40:55;10.50;;;5.10;;
14892;SDS011;7538;53.626;9.906;2023-04-06T01:43:22;6.97;;;4.70;;
14892;SDS011;7538;53.626;9.906;2023-04-06T01:45:49;6.50;;;5.07;;
14892;SDS011;7538;53.626;9.906;2023-04-06T01:48:16;8.00;;;4.90;;
14892;SDS011;7538;53.626;9.906;2023-04-06T01:50:43;7.73;;;5.20;;
14892;SDS011;7538;53.626;9.906;2023-04-06T01:53:10;6.10;;;4.93;;
14892;SDS011;7538;53.626;9.906;2023-04-06T01:55:37;7.30;;;4.47;;
14892;SDS011;7538;53.626;9.906;2023-04-06T01:58:05;8.07;;;4.93;;
14892;SDS011;7538;53.626;9.906;2023-04-06T02:00:32;8.60;;;4.87;;
14892;SDS011;7538;53.626;9.906;2023-04-06T02:02:59;6.73;;;4.97;;
14892;SDS011;7538;53.626;9.906;2023-04-06T02:05:27;6.13;;;5.53;;
14892;SDS011;7538;53.626;9.906;2023-04-06T02:07:55;7.73;;;5.03;;
14892;SDS011;7538;53.626;9.906;2023-04-06T02:10:22;7.47;;;5.20;;
14892;SDS011;7538;53.626;9.906;2023-04-06T02:12:49;6.87;;;4.20;;
14892;SDS011;7538;53.626;9.906;2023-04-06T02:15:18;7.93;;;4.77;;
14892;SDS011;7538;53.626;9.906;2023-04-06T02:17:45;7.67;;;4.83;;
14892;SDS011;7538;53.626;9.906;2023-04-06T02:20:11;6.47;;;4.13;;
14892;SDS011;7538;53.626;9.906;2023-04-06T02:22:38;6.80;;;5.13;;
14892;SDS011;7538;53.626;9.906;2023-04-06T02:25:05;7.17;;;4.93;;
14892;SDS011;7538;53.626;9.906;2023-04-06T02:27:33;7.60;;;5.00;;
14892;SDS011;7538;53.626;9.906;2023-04-06T02:30:00;6.93;;;5.33;;
14892;SDS011;7538;53.626;9.906;2023-04-06T02:32:28;7.80;;;5.20;;
14892;SDS011;7538;53.626;9.906;2023-04-06T02:34:55;7.27;;;4.60;;
14892;SDS011;7538;53.626;9.906;2023-04-06T02:37:22;9.07;;;5.50;;
14892;SDS011;7538;53.626;9.906;2023-04-06T02:39:50;8.47;;;5.10;;
14892;SDS011;7538;53.626;9.906;2023-04-06T02:42:16;5.23;;;4.27;;
14892;SDS011;7538;53.626;9.906;2023-04-06T02:44:43;7.07;;;4.73;;
14892;SDS011;7538;53.626;9.906;2023-04-06T02:47:10;5.37;;;4.50;;
14892;SDS011;7538;53.626;9.906;2023-04-06T02:49:38;6.13;;;4.60;;
14892;SDS011;7538;53.626;9.906;2023-04-06T02:52:05;7.43;;;5.47;;
14892;SDS011;7538;53.626;9.906;2023-04-06T02:54:32;8.10;;;5.17;;
14892;SDS011;7538;53.626;9.906;2023-04-06T02:56:59;7.57;;;4.93;;
14892;SDS011;7538;53.626;9.906;2023-04-06T02:59:26;6.93;;;4.87;;
14892;SDS011;7538;53.626;9.906;2023-04-06T03:01:53;7.20;;;5.13;;
14892;SDS011;7538;53.626;9.906;2023-04-06T03:04:20;9.43;;;5.30;;
14892;SDS011;7538;53.626;9.906;2023-04-06T03:06:51;8.30;;;4.93;;
14892;SDS011;7538;53.626;9.906;2023-04-06T03:09:19;6.53;;;5.03;;
14892;SDS011;7538;53.626;9.906;2023-04-06T03:11:46;7.63;;;5.73;;
14892;SDS011;7538;53.626;9.906;2023-04-06T03:14:13;8.13;;;5.50;;
14892;SDS011;7538;53.626;9.906;2023-04-06T03:16:42;12.10;;;5.83;;
14892;SDS011;7538;53.626;9.906;2023-04-06T03:19:09;8.67;;;5.37;;
14892;SDS011;7538;53.626;9.906;2023-04-06T03:21:36;11.77;;;5.60;;
14892;SDS011;7538;53.626;9.906;2023-04-06T03:24:05;6.77;;;5.43;;
14892;SDS011;7538;53.626;9.906;2023-04-06T03:26:33;8.80;;;5.23;;
14892;SDS011;7538;53.626;9.906;2023-04-06T03:28:59;8.57;;;5.70;;
14892;SDS011;7538;53.626;9.906;2023-04-06T03:31:26;7.60;;;5.23;;
14892;SDS011;7538;53.626;9.906;2023-04-06T03:33:53;9.67;;;6.73;;
14892;SDS011;7538;53.626;9.906;2023-04-06T03:36:20;7.53;;;6.00;;
14892;SDS011;7538;53.626;9.906;2023-04-06T03:38:47;10.03;;;5.90;;
14892;SDS011;7538;53.626;9.906;2023-04-06T03:41:15;10.07;;;6.70;;
14892;SDS011;7538;53.626;9.906;2023-04-06T03:43:42;8.93;;;6.03;;
14892;SDS011;7538;53.626;9.906;2023-04-06T03:46:09;7.63;;;5.40;;
14892;SDS011;7538;53.626;9.906;2023-04-06T03:48:36;8.83;;;6.33;;
14892;SDS011;7538;53.626;9.906;2023-04-06T03:51:03;8.97;;;6.07;;
14892;SDS011;7538;53.626;9.906;2023-04-06T03:53:30;8.43;;;6.00;;
14892;SDS011;7538;53.626;9.906;2023-04-06T03:55:57;9.73;;;5.87;;
14892;SDS011;7538;53.626;9.906;2023-04-06T03:58:26;9.30;;;5.33;;
14892;SDS011;7538;53.626;9.906;2023-04-06T04:00:53;7.73;;;5.73;;
14892;SDS011;7538;53.626;9.906;2023-04-06T04:03:20;8.10;;;5.90;;
14892;SDS011;7538;53.626;9.906;2023-04-06T04:05:48;8.77;;;5.30;;
14892;SDS011;7538;53.626;9.906;2023-04-06T04:08:16;8.87;;;5.40;;
14892;SDS011;7538;53.626;9.906;2023-04-06T04:10:42;6.43;;;5.43;;
14892;SDS011;7538;53.626;9.906;2023-04-06T04:13:09;7.47;;;5.20;;
14892;SDS011;7538;53.626;9.906;2023-04-06T04:15:38;7.90;;;6.23;;
14892;SDS011;7538;53.626;9.906;2023-04-06T04:18:05;9.13;;;5.97;;
14892;SDS011;7538;53.626;9.906;2023-04-06T04:20:32;9.33;;;6.63;;
14892;SDS011;7538;53.626;9.906;2023-04-06T04:23:00;7.40;;;5.80;;
14892;SDS011;7538;53.626;9.906;2023-04-06T04:25:27;9.50;;;6.00;;
14892;SDS011;7538;53.626;9.906;2023-04-06T04:27:54;7.17;;;5.13;;
14892;SDS011;7538;53.626;9.906;2023-04-06T04:30:21;10.10;;;6.53;;
14892;SDS011;7538;53.626;9.906;2023-04-06T04:32:49;11.97;;;7.43;;
14892;SDS011;7538;53.626;9.906;2023-04-06T04:35:16;11.27;;;6.93;;
14892;SDS011;7538;53.626;9.906;2023-04-06T04:37:42;8.43;;;6.30;;
14892;SDS011;7538;53.626;9.906;2023-04-06T04:40:10;10.33;;;6.63;;
14892;SDS011;7538;53.626;9.906;2023-04-06T04:42:37;9.83;;;6.77;;
14892;SDS011;7538;53.626;9.906;2023-04-06T04:45:04;9.70;;;7.07;;
14892;SDS011;7538;53.626;9.906;2023-04-06T04:47:32;10.33;;;7.10;;
14892;SDS011;7538;53.626;9.906;2023-04-06T04:50:00;10.83;;;6.63;;
14892;SDS011;7538;53.626;9.906;2023-04-06T04:52:27;8.13;;;6.67;;
14892;SDS011;7538;53.626;9.906;2023-04-06T04:54:54;13.63;;;7.60;;
14892;SDS011;7538;53.626;9.906;2023-04-06T04:57:21;9.73;;;7.17;;
14892;SDS011;7538;53.626;9.906;2023-04-06T04:59:48;13.63;;;8.03;;
14892;SDS011;7538;53.626;9.906;2023-04-06T05:02:15;12.37;;;7.67;;
14892;SDS011;7538;53.626;9.906;2023-04-06T05:04:42;9.10;;;7.13;;
14892;SDS011;7538;53.626;9.906;2023-04-06T05:07:11;11.07;;;8.00;;
14892;SDS011;7538;53.626;9.906;2023-04-06T05:09:38;7.60;;;6.80;;
14892;SDS011;7538;53.626;9.906;2023-04-06T05:12:05;9.27;;;6.60;;
14892;SDS011;7538;53.626;9.906;2023-04-06T05:14:32;9.63;;;6.93;;
14892;SDS011;7538;53.626;9.906;2023-04-06T05:16:59;11.30;;;8.63;;
14892;SDS011;7538;53.626;9.906;2023-04-06T05:19:26;11.77;;;8.20;;
14892;SDS011;7538;53.626;9.906;2023-04-06T05:21:53;9.93;;;7.93;;
14892;SDS011;7538;53.626;9.906;2023-04-06T05:24:21;13.33;;;7.93;;
14892;SDS011;7538;53.626;9.906;2023-04-06T05:26:48;11.07;;;7.43;;
14892;SDS011;7538;53.626;9.906;2023-04-06T05:29:15;10.67;;;7.77;;
14892;SDS011;7538;53.626;9.906;2023-04-06T05:31:43;10.20;;;7.50;;
14892;SDS011;7538;53.626;9.906;2023-04-06T05:34:10;8.73;;;6.77;;
14892;SDS011;7538;53.626;9.906;2023-04-06T05:36:37;10.00;;;6.20;;
14892;SDS011;7538;53.626;9.906;2023-04-06T05:39:05;10.00;;;7.73;;
14892;SDS011;7538;53.626;9.906;2023-04-06T05:41:33;10.27;;;7.03;;
14892;SDS011;7538;53.626;9.906;2023-04-06T05:44:00;10.03;;;7.70;;
14892;SDS011;7538;53.626;9.906;2023-04-06T05:46:27;9.73;;;6.60;;
14892;SDS011;7538;53.626;9.906;2023-04-06T05:48:54;11.57;;;7.60;;
14892;SDS011;7538;53.626;9.906;2023-04-06T05:51:21;10.03;;;7.30;;
14892;SDS011;7538;53.626;9.906;2023-04-06T05:53:48;10.53;;;6.97;;
14892;SDS011;7538;53.626;9.906;2023-04-06T05:56:15;8.60;;;6.70;;
14892;SDS011;7538;53.626;9.906;2023-04-06T05:58:44;6.90;;;5.57;;
14892;SDS011;7538;53.626;9.906;2023-04-06T06:01:10;9.47;;;6.97;;
14892;SDS011;7538;53.626;9.906;2023-04-06T06:03:37;9.80;;;6.20;;
14892;SDS011;7538;53.626;9.906;2023-04-06T06:06:04;9.30;;;6.47;;
14892;SDS011;7538;53.626;9.906;2023-04-06T06:08:31;7.43;;;5.73;;
14892;SDS011;7538;53.626;9.906;2023-04-06T06:10:58;9.50;;;6.30;;
14892;SDS011;7538;53.626;9.906;2023-04-06T06:13:25;7.57;;;5.77;;
14892;SDS011;7538;53.626;9.906;2023-04-06T06:15:53;7.50;;;5.70;;
14892;SDS011;7538;53.626;9.906;2023-04-06T06:18:20;8.05;;;5.78;;
14892;SDS011;7538;53.626;9.906;2023-04-06T06:20:47;5.68;;;4.88;;
14892;SDS011;7538;53.626;9.906;2023-04-06T06:23:14;7.82;;;6.00;;
14892;SDS011;7538;53.626;9.906;2023-04-06T06:25:41;9.15;;;5.75;;
14892;SDS011;7538;53.626;9.906;2023-04-06T06:28:08;8.30;;;5.82;;
14892;SDS011;7538;53.626;9.906;2023-04-06T06:30:35;8.13;;;5.68;;
14892;SDS011;7538;53.626;9.906;2023-04-06T06:33:03;6.40;;;5.47;;
14892;SDS011;7538;53.626;9.906;2023-04-06T06:35:30;6.20;;;5.40;;
14892;SDS011;7538;53.626;9.906;2023-04-06T06:37:57;6.68;;;5.68;;
14892;SDS011;7538;53.626;9.906;2023-04-06T06:40:24;6.80;;;5.70;;
14892;SDS011;7538;53.626;9.906;2023-04-06T06:42:51;7.03;;;6.40;;
14892;SDS011;7538;53.626;9.906;2023-04-06T06:45:19;7.70;;;5.97;;
14892;SDS011;7538;53.626;9.906;2023-04-06T06:47:45;8.73;;;6.03;;
14892;SDS011;7538;53.626;9.906;2023-04-06T06:50:14;8.15;;;6.13;;
14892;SDS011;7538;53.626;9.906;2023-04-06T06:52:41;7.25;;;6.55;;
14892;SDS011;7538;53.626;9.906;2023-04-06T06:55:08;9.07;;;6.00;;
14892;SDS011;7538;53.626;9.906;2023-04-06T06:57:36;6.05;;;5.45;;
14892;SDS011;7538;53.626;9.906;2023-04-06T07:00:04;6.75;;;6.03;;
14892;SDS011;7538;53.626;9.906;2023-04-06T07:02:33;8.43;;;6.45;;
14892;SDS011;7538;53.626;9.906;2023-04-06T07:05:01;9.40;;;6.53;;
14892;SDS011;7538;53.626;9.906;2023-04-06T07:07:31;7.20;;;6.50;;
14892;SDS011;7538;53.626;9.906;2023-04-06T07:09:58;6.65;;;6.05;;
14892;SDS011;7538;53.626;9.906;2023-04-06T07:12:25;7.60;;;6.80;;
14892;SDS011;7538;53.626;9.906;2023-04-06T07:14:52;6.68;;;5.88;;
14892;SDS011;7538;53.626;9.906;2023-04-06T07:17:19;8.50;;;5.75;;
14892;SDS011;7538;53.626;9.906;2023-04-06T07:19:46;8.65;;;6.18;;
14892;SDS011;7538;53.626;9.906;2023-04-06T07:22:13;9.45;;;6.47;;
14892;SDS011;7538;53.626;9.906;2023-04-06T07:24:41;6.78;;;6.05;;
14892;SDS011;7538;53.626;9.906;2023-04-06T07:27:08;6.82;;;6.07;;
14892;SDS011;7538;53.626;9.906;2023-04-06T07:29:35;7.80;;;6.07;;
14892;SDS011;7538;53.626;9.906;2023-04-06T07:32:02;10.32;;;6.20;;
14892;SDS011;7538;53.626;9.906;2023-04-06T07:34:29;7.53;;;5.53;;
14892;SDS011;7538;53.626;9.906;2023-04-06T07:36:56;6.75;;;5.93;;
14892;SDS011;7538;53.626;9.906;2023-04-06T07:39:23;7.28;;;5.45;;
14892;SDS011;7538;53.626;9.906;2023-04-06T07:41:52;6.43;;;5.82;;
14892;SDS011;7538;53.626;9.906;2023-04-06T07:44:19;7.93;;;6.35;;
14892;SDS011;7538;53.626;9.906;2023-04-06T07:46:46;5.53;;;4.95;;
14892;SDS011;7538;53.626;9.906;2023-04-06T07:49:13;6.40;;;5.80;;
14892;SDS011;7538;53.626;9.906;2023-04-06T07:51:40;9.75;;;5.72;;
14892;SDS011;7538;53.626;9.906;2023-04-06T07:54:07;6.43;;;5.18;;
14892;SDS011;7538;53.626;9.906;2023-04-06T07:56:34;9.27;;;5.57;;
14892;SDS011;7538;53.626;9.906;2023-04-06T07:59:02;6.10;;;5.40;;
14892;SDS011;7538;53.626;9.906;2023-04-06T08:01:29;6.38;;;5.88;;
14892;SDS011;7538;53.626;9.906;2023-04-06T08:03:56;6.82;;;5.55;;
14892;SDS011;7538;53.626;9.906;2023-04-06T08:06:24;5.90;;;5.30;;
14892;SDS011;7538;53.626;9.906;2023-04-06T08:08:51;5.88;;;5.13;;
14892;SDS011;7538;53.626;9.906;2023-04-06T08:11:18;6.20;;;5.53;;
14892;SDS011;7538;53.626;9.906;2023-04-06T08:13:45;5.07;;;4.55;;
14892;SDS011;7538;53.626;9.906;2023-04-06T08:16:13;5.47;;;4.90;;
14892;SDS011;7538;53.626;9.906;2023-04-06T08:18:40;6.82;;;5.50;;
14892;SDS011;7538;53.626;9.906;2023-04-06T08:21:07;6.00;;;5.40;;
14892;SDS011;7538;53.626;9.906;2023-04-06T08:23:34;5.20;;;4.55;;
14892;SDS011;7538;53.626;9.906;2023-04-06T08:26:01;5.90;;;4.95;;
14892;SDS011;7538;53.626;9.906;2023-04-06T08:28:27;8.48;;;5.32;;
14892;SDS011;7538;53.626;9.906;2023-04-06T08:30:54;6.07;;;4.90;;
14892;SDS011;7538;53.626;9.906;2023-04-06T08:33:23;6.40;;;4.97;;
14892;SDS011;7538;53.626;9.906;2023-04-06T08:35:49;5.72;;;5.13;;
14892;SDS011;7538;53.626;9.906;2023-04-06T08:38:16;7.13;;;5.32;;
14892;SDS011;7538;53.626;9.906;2023-04-06T08:40:43;8.20;;;4.90;;
14892;SDS011;7538;53.626;9.906;2023-04-06T08:43:13;7.20;;;5.18;;
14892;SDS011;7538;53.626;9.906;2023-04-06T08:45:40;7.25;;;4.60;;
14892;SDS011;7538;53.626;9.906;2023-04-06T08:48:08;7.13;;;5.25;;
14892;SDS011;7538;53.626;9.906;2023-04-06T08:50:37;5.55;;;5.05;;
14892;SDS011;7538;53.626;9.906;2023-04-06T08:53:05;6.30;;;5.70;;
14892;SDS011;7538;53.626;9.906;2023-04-06T08:55:33;6.30;;;5.65;;
14892;SDS011;7538;53.626;9.906;2023-04-06T08:58:00;7.32;;;5.57;;
14892;SDS011;7538;53.626;9.906;2023-04-06T09:00:28;8.27;;;6.32;;
14892;SDS011;7538;53.626;9.906;2023-04-06T09:02:55;6.97;;;6.32;;
14892;SDS011;7538;53.626;9.906;2023-04-06T09:05:23;6.30;;;5.70;;
14892;SDS011;7538;53.626;9.906;2023-04-06T09:07:52;7.63;;;5.70;;
14892;SDS011;7538;53.626;9.906;2023-04-06T09:10:20;6.20;;;5.40;;
14892;SDS011;7538;53.626;9.906;2023-04-06T09:12:48;7.75;;;5.22;;
14892;SDS011;7538;53.626;9.906;2023-04-06T09:15:19;6.53;;;5.10;;
14892;SDS011;7538;53.626;9.906;2023-04-06T09:17:47;7.97;;;5.07;;
14892;SDS011;7538;53.626;9.906;2023-04-06T09:20:14;5.30;;;4.78;;
14892;SDS011;7538;53.626;9.906;2023-04-06T09:22:48;4.72;;;4.28;;
14892;SDS011;7538;53.626;9.906;2023-04-06T09:25:19;6.85;;;4.88;;
14892;SDS011;7538;53.626;9.906;2023-04-06T09:27:48;5.10;;;4.60;;
14892;SDS011;7538;53.626;9.906;2023-04-06T09:30:24;5.97;;;5.03;;
14892;SDS011;7538;53.626;9.906;2023-04-06T09:32:52;7.38;;;5.30;;
14892;SDS011;7538;53.626;9.906;2023-04-06T09:35:20;4.97;;;4.47;;
14892;SDS011;7538;53.626;9.906;2023-04-06T09:37:48;6.20;;;4.20;;
14892;SDS011;7538;53.626;9.906;2023-04-06T09:40:16;6.25;;;4.15;;
14892;SDS011;7538;53.626;9.906;2023-04-06T09:42:46;6.18;;;4.78;;
14892;SDS011;7538;53.626;9.906;2023-04-06T09:45:15;6.13;;;4.85;;
14892;SDS011;7538;53.626;9.906;2023-04-06T09:47:42;4.97;;;4.30;;
14892;SDS011;7538;53.626;9.906;2023-04-06T09:50:10;8.23;;;4.68;;
14892;SDS011;7538;53.626;9.906;2023-04-06T09:52:38;5.22;;;4.22;;
14892;SDS011;7538;53.626;9.906;2023-04-06T09:55:08;6.18;;;4.80;;
14892;SDS011;7538;53.626;9.906;2023-04-06T09:57:42;6.28;;;4.82;;
14892;SDS011;7538;53.626;9.906;2023-04-06T10:00:16;7.93;;;4.95;;
14892;SDS011;7538;53.626;9.906;2023-04-06T10:02:48;6.95;;;4.57;;
14892;SDS011;7538;53.626;9.906;2023-04-06T10:05:20;4.85;;;4.35;;
14892;SDS011;7538;53.626;9.906;2023-04-06T10:07:53;8.73;;;5.15;;
14892;SDS011;7538;53.626;9.906;2023-04-06T10:10:23;6.60;;;4.78;;
14892;SDS011;7538;53.626;9.906;2023-04-06T10:12:51;6.10;;;4.32;;
14892;SDS011;7538;53.626;9.906;2023-04-06T10:15:19;5.28;;;4.63;;
14892;SDS011;7538;53.626;9.906;2023-04-06T10:17:46;4.95;;;4.45;;
14892;SDS011;7538;53.626;9.906;2023-04-06T10:20:14;5.13;;;3.85;;
14892;SDS011;7538;53.626;9.906;2023-04-06T10:22:49;6.32;;;4.00;;
14892;SDS011;7538;53.626;9.906;2023-04-06T10:25:31;6.40;;;4.47;;
14892;SDS011;7538;53.626;9.906;2023-04-06T10:28:00;4.28;;;3.67;;
14892;SDS011;7538;53.626;9.906;2023-04-06T10:30:28;6.40;;;3.80;;
14892;SDS011;7538;53.626;9.906;2023-04-06T10:32:55;6.00;;;3.80;;
14892;SDS011;7538;53.626;9.906;2023-04-06T10:35:22;4.22;;;3.70;;
14892;SDS011;7538;53.626;9.906;2023-04-06T10:37:51;4.88;;;4.05;;
14892;SDS011;7538;53.626;9.906;2023-04-06T10:40:19;4.50;;;4.10;;
14892;SDS011;7538;53.626;9.906;2023-04-06T10:42:48;6.22;;;4.55;;
14892;SDS011;7538;53.626;9.906;2023-04-06T10:45:23;5.03;;;4.45;;
14892;SDS011;7538;53.626;9.906;2023-04-06T10:47:52;5.90;;;4.93;;
14892;SDS011;7538;53.626;9.906;2023-04-06T10:50:19;5.10;;;4.60;;
14892;SDS011;7538;53.626;9.906;2023-04-06T10:52:47;5.75;;;4.53;;
14892;SDS011;7538;53.626;9.906;2023-04-06T10:55:25;7.50;;;4.70;;
14892;SDS011;7538;53.626;9.906;2023-04-06T10:57:53;5.75;;;4.50;;
14892;SDS011;7538;53.626;9.906;2023-04-06T11:00:20;6.32;;;4.95;;
14892;SDS011;7538;53.626;9.906;2023-04-06T11:02:49;6.95;;;4.97;;
14892;SDS011;7538;53.626;9.906;2023-04-06T11:05:16;4.95;;;4.18;;
14892;SDS011;7538;53.626;9.906;2023-04-06T11:07:43;4.85;;;4.35;;
14892;SDS011;7538;53.626;9.906;2023-04-06T11:10:10;5.70;;;4.68;;
14892;SDS011;7538;53.626;9.906;2023-04-06T11:12:37;5.70;;;5.10;;
14892;SDS011;7538;53.626;9.906;2023-04-06T11:15:05;5.78;;;4.72;;
14892;SDS011;7538;53.626;9.906;2023-04-06T11:17:34;6.72;;;5.22;;
14892;SDS011;7538;53.626;9.906;2023-04-06T11:20:03;6.20;;;5.35;;
14892;SDS011;7538;53.626;9.906;2023-04-06T11:22:35;7.45;;;5.78;;
14892;SDS011;7538;53.626;9.906;2023-04-06T11:25:05;6.95;;;6.10;;
14892;SDS011;7538;53.626;9.906;2023-04-06T11:27:33;6.43;;;5.38;;
14892;SDS011;7538;53.626;9.906;2023-04-06T11:30:00;8.25;;;6.03;;
14892;SDS011;7538;53.626;9.906;2023-04-06T11:32:28;6.63;;;5.72;;
14892;SDS011;7538;53.626;9.906;2023-04-06T11:34:57;6.38;;;5.07;;
14892;SDS011;7538;53.626;9.906;2023-04-06T11:37:25;6.72;;;5.53;;
14892;SDS011;7538;53.626;9.906;2023-04-06T11:39:54;9.25;;;6.43;;
14892;SDS011;7538;53.626;9.906;2023-04-06T11:42:22;6.13;;;5.22;;
14892;SDS011;7538;53.626;9.906;2023-04-06T11:44:50;7.30;;;6.40;;
14892;SDS011;7538;53.626;9.906;2023-04-06T11:47:18;7.25;;;6.20;;
14892;SDS011;7538;53.626;9.906;2023-04-06T11:49:47;7.38;;;6.68;;
14892;SDS011;7538;53.626;9.906;2023-04-06T11:52:16;6.95;;;6.00;;
14892;SDS011;7538;53.626;9.906;2023-04-06T11:54:45;10.07;;;6.60;;
14892;SDS011;7538;53.626;9.906;2023-04-06T11:57:12;7.57;;;6.28;;
14892;SDS011;7538;53.626;9.906;2023-04-06T11:59:39;7.65;;;6.43;;
14892;SDS011;7538;53.626;9.906;2023-04-06T12:02:06;7.10;;;5.88;;
14892;SDS011;7538;53.626;9.906;2023-04-06T12:04:33;6.68;;;5.97;;
14892;SDS011;7538;53.626;9.906;2023-04-06T12:07:00;7.32;;;6.30;;
14892;SDS011;7538;53.626;9.906;2023-04-06T12:09:29;7.05;;;6.10;;
14892;SDS011;7538;53.626;9.906;2023-04-06T12:11:56;7.00;;;6.25;;
14892;SDS011;7538;53.626;9.906;2023-04-06T12:14:23;7.38;;;5.97;;
14892;SDS011;7538;53.626;9.906;2023-04-06T12:16:50;9.20;;;6.18;;
14892;SDS011;7538;53.626;9.906;2023-04-06T12:19:17;8.82;;;6.50;;
14892;SDS011;7538;53.626;9.906;2023-04-06T12:21:44;7.78;;;5.60;;
14892;SDS011;7538;53.626;9.906;2023-04-06T12:24:11;8.65;;;6.85;;
14892;SDS011;7538;53.626;9.906;2023-04-06T12:26:40;7.82;;;6.00;;
14892;SDS011;7538;53.626;9.906;2023-04-06T12:29:07;8.63;;;6.45;;
14892;SDS011;7538;53.626;9.906;2023-04-06T12:31:34;8.45;;;6.03;;
14892;SDS011;7538;53.626;9.906;2023-04-06T12:34:03;9.50;;;5.78;;
14892;SDS011;7538;53.626;9.906;2023-04-06T12:36:30;6.72;;;5.95;;
14892;SDS011;7538;53.626;9.906;2023-04-06T12:38:57;8.70;;;6.65;;
14892;SDS011;7538;53.626;9.906;2023-04-06T12:41:25;6.63;;;5.80;;
14892;SDS011;7538;53.626;9.906;2023-04-06T12:43:53;7.57;;;6.05;;
14892;SDS011;7538;53.626;9.906;2023-04-06T12:46:20;11.07;;;6.88;;
14892;SDS011;7538;53.626;9.906;2023-04-06T12:48:47;9.38;;;6.97;;
14892;SDS011;7538;53.626;9.906;2023-04-06T12:51:15;7.65;;;5.85;;
14892;SDS011;7538;53.626;9.906;2023-04-06T12:53:42;6.65;;;5.93;;
14892;SDS011;7538;53.626;9.906;2023-04-06T12:56:14;7.18;;;6.47;;
14892;SDS011;7538;53.626;9.906;2023-04-06T12:58:42;9.13;;;7.00;;
14892;SDS011;7538;53.626;9.906;2023-04-06T13:01:11;7.00;;;6.30;;
14892;SDS011;7538;53.626;9.906;2023-04-06T13:03:38;7.57;;;5.82;;
14892;SDS011;7538;53.626;9.906;2023-04-06T13:06:06;7.68;;;6.88;;
14892;SDS011;7538;53.626;9.906;2023-04-06T13:08:34;6.90;;;6.03;;
14892;SDS011;7538;53.626;9.906;2023-04-06T13:11:02;8.57;;;6.32;;
14892;SDS011;7538;53.626;9.906;2023-04-06T13:13:29;6.90;;;6.22;;
14892;SDS011;7538;53.626;9.906;2023-04-06T13:15:59;9.00;;;6.63;;
14892;SDS011;7538;53.626;9.906;2023-04-06T13:18:28;8.98;;;6.70;;
14892;SDS011;7538;53.626;9.906;2023-04-06T13:20:56;9.40;;;6.40;;
14892;SDS011;7538;53.626;9.906;2023-04-06T13:23:25;8.38;;;6.43;;
14892;SDS011;7538;53.626;9.906;2023-04-06T13:25:58;8.77;;;6.40;;
14892;SDS011;7538;53.626;9.906;2023-04-06T13:28:26;6.72;;;6.00;;
14892;SDS011;7538;53.626;9.906;2023-04-06T13:30:54;8.27;;;6.68;;
14892;SDS011;7538;53.626;9.906;2023-04-06T13:33:21;9.07;;;6.68;;
14892;SDS011;7538;53.626;9.906;2023-04-06T13:35:49;8.95;;;6.53;;
14892;SDS011;7538;53.626;9.906;2023-04-06T13:38:16;7.13;;;6.15;;
14892;SDS011;7538;53.626;9.906;2023-04-06T13:40:43;8.57;;;6.15;;
14892;SDS011;7538;53.626;9.906;2023-04-06T13:43:10;8.80;;;7.13;;
14892;SDS011;7538;53.626;9.906;2023-04-06T13:45:37;7.63;;;6.35;;
14892;SDS011;7538;53.626;9.906;2023-04-06T13:48:05;7.40;;;6.10;;
14892;SDS011;7538;53.626;9.906;2023-04-06T13:50:32;8.27;;;6.68;;
14892;SDS011;7538;53.626;9.906;2023-04-06T13:53:00;9.63;;;6.43;;
14892;SDS011;7538;53.626;9.906;2023-04-06T13:55:27;7.70;;;6.22;;
14892;SDS011;7538;53.626;9.906;2023-04-06T13:57:55;8.00;;;7.20;;
14892;SDS011;7538;53.626;9.906;2023-04-06T14:00:22;8.30;;;7.28;;
14892;SDS011;7538;53.626;9.906;2023-04-06T14:02:49;7.60;;;6.70;;
14892;SDS011;7538;53.626;9.906;2023-04-06T14:05:16;8.05;;;6.40;;
14892;SDS011;7538;53.626;9.906;2023-04-06T14:07:43;9.80;;;6.70;;
14892;SDS011;7538;53.626;9.906;2023-04-06T14:10:11;8.55;;;6.60;;
14892;SDS011;7538;53.626;9.906;2023-04-06T14:12:40;9.55;;;6.85;;
14892;SDS011;7538;53.626;9.906;2023-04-06T14:15:08;8.35;;;7.25;;
14892;SDS011;7538;53.626;9.906;2023-04-06T14:17:35;6.80;;;5.70;;
14892;SDS011;7538;53.626;9.906;2023-04-06T14:20:03;7.38;;;5.20;;
14892;SDS011;7538;53.626;9.906;2023-04-06T14:22:31;5.78;;;5.18;;
14892;SDS011;7538;53.626;9.906;2023-04-06T14:24:57;6.70;;;4.65;;
14892;SDS011;7538;53.626;9.906;2023-04-06T14:27:26;8.05;;;6.22;;
14892;SDS011;7538;53.626;9.906;2023-04-06T14:29:53;7.72;;;6.18;;
14892;SDS011;7538;53.626;9.906;2023-04-06T14:32:21;8.40;;;7.45;;
14892;SDS011;7538;53.626;9.906;2023-04-06T14:34:48;8.68;;;7.68;;
14892;SDS011;7538;53.626;9.906;2023-04-06T14:37:15;8.50;;;6.47;;
14892;SDS011;7538;53.626;9.906;2023-04-06T14:39:42;6.85;;;6.10;;
14892;SDS011;7538;53.626;9.906;2023-04-06T14:42:09;8.20;;;6.45;;
14892;SDS011;7538;53.626;9.906;2023-04-06T14:44:37;8.35;;;7.18;;
14892;SDS011;7538;53.626;9.906;2023-04-06T14:47:07;8.07;;;6.63;;
14892;SDS011;7538;53.626;9.906;2023-04-06T14:49:34;9.50;;;7.45;;
14892;SDS011;7538;53.626;9.906;2023-04-06T14:52:01;9.25;;;7.43;;
14892;SDS011;7538;53.626;9.906;2023-04-06T14:54:28;7.38;;;6.55;;
14892;SDS011;7538;53.626;9.906;2023-04-06T14:56:55;8.40;;;6.50;;
14892;SDS011;7538;53.626;9.906;2023-04-06T14:59:22;7.30;;;6.60;;
14892;SDS011;7538;53.626;9.906;2023-04-06T15:01:50;7.50;;;6.50;;